createdAt,value
2022-08-12T00:00:00.000Z,5.89
2022-08-12T00:15:00.000Z,6.14
2022-08-12T00:30:00.000Z,6.13
2022-08-12T00:45:00.000Z,7.54
2022-08-12T01:00:00.000Z,7.04
2022-08-12T01:15:00.000Z,7.16
2022-08-12T01:30:00.000Z,7.01
2022-08-12T01:45:00.000Z,7.2
2022-08-12T02:00:00.000Z,7.95
2022-08-12T02:15:00.000Z,7.84
2022-08-12T02:30:00.000Z,8.51
2022-08-12T02:45:00.000Z,9.47
2022-08-12T03:00:00.000Z,9.52
2022-08-12T03:15:00.000Z,8.86
2022-08-12T03:30:00.000Z,10.76
2022-08-12T03:45:00.000Z,11.73
2022-08-12T04:00:00.000Z,10.4
2022-08-12T04:15:00.000Z,11.08
2022-08-12T04:30:00.000Z,11.29
2022-08-12T04:45:00.000Z,14.04
2022-08-12T05:00:00.000Z,11.93
2022-08-12T05:15:00.000Z,10.74
2022-08-12T05:30:00.000Z,10.75
2022-08-12T05:45:00.000Z,9.13
2022-08-12T06:00:00.000Z,9.68
2022-08-12T06:15:00.000Z,9.73
2022-08-12T06:30:00.000Z,10.48
2022-08-12T06:45:00.000Z,9.51
2022-08-12T07:00:00.000Z,7.62
2022-08-12T07:15:00.000Z,7.66
2022-08-12T07:30:00.000Z,7.24
2022-08-12T07:45:00.000Z,6.16
2022-08-12T08:00:00.000Z,4.68
2022-08-12T08:15:00.000Z,4.39
2022-08-12T08:30:00.000Z,4.33
2022-08-12T08:45:00.000Z,4.2
2022-08-12T09:15:00.000Z,4.12
2022-08-12T09:30:00.000Z,3.82
2022-08-12T09:45:00.000Z,4.06
2022-08-12T10:00:00.000Z,3.53
2022-08-12T10:15:00.000Z,2.74
2022-08-12T10:30:00.000Z,3.14
2022-08-12T10:45:00.000Z,3.21
2022-08-12T11:00:00.000Z,2.79
2022-08-12T11:15:00.000Z,2.95
2022-08-12T11:30:00.000Z,2.35
2022-08-12T12:00:00.000Z,2.59
2022-08-12T12:15:00.000Z,3.93
2022-08-12T12:30:00.000Z,2.69
2022-08-12T12:45:00.000Z,2.49
2022-08-12T13:00:00.000Z,3.09
2022-08-12T13:15:00.000Z,2.53
2022-08-12T13:30:00.000Z,2.27
2022-08-12T13:45:00.000Z,2.24
2022-08-12T14:00:00.000Z,2.93
2022-08-12T14:15:00.000Z,2.92
2022-08-12T14:30:00.000Z,2.87
2022-08-12T14:45:00.000Z,1.85
2022-08-12T15:00:00.000Z,1.82
2022-08-12T15:15:00.000Z,1.49
2022-08-12T15:30:00.000Z,1.39
2022-08-12T15:45:00.000Z,1.42
2022-08-12T16:00:00.000Z,1.47
2022-08-12T16:15:00.000Z,1.58
2022-08-12T16:30:00.000Z,1.85
2022-08-12T16:45:00.000Z,1.85
2022-08-12T17:00:00.000Z,3.26
2022-08-12T17:15:00.000Z,2.08
2022-08-12T17:30:00.000Z,2.4
2022-08-12T17:45:00.000Z,2.44
2022-08-12T18:00:00.000Z,2.59
2022-08-12T18:15:00.000Z,2.85
2022-08-12T18:30:00.000Z,3.34
2022-08-12T18:45:00.000Z,3.56
2022-08-12T19:00:00.000Z,3.52
2022-08-12T19:15:00.000Z,3.71
2022-08-12T19:30:00.000Z,4.62
2022-08-12T19:45:00.000Z,5.12
2022-08-12T20:00:00.000Z,3.34
2022-08-12T20:15:00.000Z,2.88
2022-08-12T20:30:00.000Z,3.93
2022-08-12T20:45:00.000Z,4.35
2022-08-12T21:00:00.000Z,4.39
2022-08-12T21:15:00.000Z,3.88
2022-08-12T21:30:00.000Z,4.06
2022-08-12T21:45:00.000Z,4.12
2022-08-12T22:00:00.000Z,4.24
2022-08-12T22:15:00.000Z,3.93
2022-08-12T22:30:00.000Z,4.07
2022-08-12T22:45:00.000Z,4.16
2022-08-12T23:00:00.000Z,4.09
2022-08-12T23:15:00.000Z,4.55
2022-08-12T23:30:00.000Z,4.25
2022-08-12T23:45:00.000Z,4.32
